Time;durP1;ratioP1;P1;durP2;ratioP2;P2;SDS_P1;SDS_P2;PMS_P1;PMS_P2;Temp;Humidity;BMP_temperature;BMP_pressure;BME280_temperature;BME280_humidity;BME280_pressure;Samples;Min_cycle;Max_cycle;Signal;HPM_P1;HPM_P2
2020/12/07 00:03:56;;;;;;;13.87;9.67;;;;;;;4.62;65.33;98361.07;251807;1133;115264;-73
2020/12/07 00:08:58;;;;;;;16.87;10.00;;;;;;;4.56;64.77;98356.13;251471;1135;114797;-73
2020/12/07 00:14:10;;;;;;;19.27;10.13;;;;;;;4.55;65.28;98346.48;251770;1134;114961;-73
2020/12/07 00:19:16;;;;;;;15.17;9.53;;;;;;;4.58;65.59;98359.52;251668;1133;116168;-73
2020/12/07 00:24:23;;;;;;;16.60;10.23;;;;;;;4.61;64.50;98348.83;251740;1134;115271;-72
2020/12/07 00:29:35;;;;;;;15.17;9.60;;;;;;;4.60;65.56;98323.42;251595;1134;115343;-68
2020/12/07 00:34:38;;;;;;;12.97;8.60;;;;;;;4.54;65.10;98329.83;251629;1134;114743;-72
2020/12/07 00:39:47;;;;;;;15.63;10.00;;;;;;;4.49;65.16;98324.80;250309;1134;114572;-72
2020/12/07 00:44:53;;;;;;;16.12;9.90;;;;;;;4.50;65.09;98326.50;251512;1134;115886;-73
2020/12/07 00:50:22;;;;;;;14.78;9.65;;;;;;;4.45;64.90;98325.00;251713;1134;114962;-73
2020/12/07 00:55:39;;;;;;;15.30;9.00;;;;;;;4.39;65.10;98328.81;251647;1134;114510;-73
2020/12/07 01:00:45;;;;;;;12.68;8.63;;;;;;;4.39;65.20;98328.81;251813;1134;114082;-73
2020/12/07 01:06:12;;;;;;;14.23;9.40;;;;;;;4.41;64.88;98308.49;251442;1134;114713;-73
2020/12/07 01:11:17;;;;;;;13.40;8.63;;;;;;;4.44;64.74;98305.72;251787;1132;115099;-73
2020/12/07 01:16:31;;;;;;;12.53;8.85;;;;;;;4.45;64.97;98301.30;251624;1135;115024;-73
2020/12/07 01:21:39;;;;;;;12.93;9.10;;;;;;;4.49;65.38;98298.45;251639;1134;115119;-73
2020/12/07 01:26:56;;;;;;;13.38;8.65;;;;;;;4.51;64.91;98301.00;251697;1134;114585;-73
2020/12/07 01:32:19;;;;;;;;;;;;;;;;;;;;;
2020/12/07 01:37:28;;;;;;;11.57;8.00;;;;;;;4.49;64.75;98279.16;251268;1134;114773;-71
2020/12/07 01:42:55;;;;;;;12.55;7.92;;;;;;;4.48;65.71;98272.16;251746;1134;115539;-71
2020/12/07 01:48:13;;;;;;;11.00;7.75;;;;;;;4.43;64.67;98274.19;251709;1135;115454;-72
2020/12/07 01:53:41;;;;;;;12.47;8.37;;;;;;;4.39;64.81;98291.09;250740;1134;114915;-72
2020/12/07 01:58:57;;;;;;;13.37;9.00;;;;;;;4.40;65.79;98282.24;251658;1135;114633;-70
2020/12/07 02:04:04;;;;;;;14.97;8.47;;;;;;;4.37;65.62;98280.60;251694;1139;114708;-69
2020/12/07 02:09:07;;;;;;;15.08;8.80;;;;;;;4.36;65.89;98276.27;251783;1134;115042;-69
2020/12/07 02:14:22;;;;;;;11.70;8.37;;;;;;;4.37;65.86;98271.86;251558;1134;114717;-72
2020/12/07 02:19:30;;;;;;;11.63;8.20;;;;;;;4.36;65.11;98267.52;251588;1133;114697;-73
2020/12/07 02:24:36;;;;;;;13.47;8.70;;;;;;;4.31;65.34;98272.15;251666;1134;114553;-74
2020/12/07 02:29:48;;;;;;;10.27;7.77;;;;;;;4.22;65.48;98269.05;251629;1135;114470;-75
2020/12/07 02:35:07;;;;;;;13.13;8.15;;;;;;;4.15;65.03;98267.64;251516;1135;114663;-70
2020/12/07 02:40:17;;;;;;;12.77;8.03;;;;;;;4.13;66.02;98248.42;251643;1135;114046;-70
2020/12/07 02:45:22;;;;;;;12.03;7.92;;;;;;;4.15;65.25;98230.78;251537;1136;114653;-78
2020/12/07 02:50:42;;;;;;;12.33;8.63;;;;;;;4.21;66.28;98233.13;251540;1134;114648;-74
2020/12/07 02:56:02;;;;;;;12.23;8.83;;;;;;;4.29;66.07;98221.35;251507;1135;115698;-73
2020/12/07 03:01:14;;;;;;;13.03;8.00;;;;;;;4.27;66.26;98221.41;251687;1134;114346;-71
2020/12/07 03:06:17;;;;;;;11.37;7.67;;;;;;;4.22;66.17;98228.70;251567;1134;114686;-70
2020/12/07 03:11:29;;;;;;;11.50;7.85;;;;;;;4.16;65.56;98229.00;251685;1135;114431;-71
2020/12/07 03:16:32;;;;;;;11.23;7.63;;;;;;;4.11;65.99;98223.09;251760;1134;114801;-71
2020/12/07 03:21:38;;;;;;;10.32;7.28;;;;;;;4.10;65.21;98219.61;251562;1135;114915;-76
2020/12/07 03:27:25;;;;;;;13.00;8.35;;;;;;;4.08;66.15;98221.48;251710;1135;114910;-71
2020/12/07 03:32:28;;;;;;;12.97;8.40;;;;;;;4.10;66.21;98224.03;251449;1134;114709;-71
2020/12/07 03:37:31;;;;;;;12.90;8.53;;;;;;;4.17;65.87;98230.69;251577;1134;114644;-71
2020/12/07 03:42:40;;;;;;;14.13;8.03;;;;;;;4.18;65.34;98212.20;251629;1135;114524;-71
2020/12/07 03:47:47;;;;;;;11.20;7.62;;;;;;;4.16;65.96;98231.63;251336;1134;115265;-73
2020/12/07 03:52:55;;;;;;;10.72;7.65;;;;;;;4.12;65.44;98227.45;251653;1134;114579;-72
2020/12/07 03:58:02;;;;;;;10.83;7.63;;;;;;;4.06;65.51;98230.38;251650;1134;114726;-69
2020/12/07 04:03:08;;;;;;;11.57;7.85;;;;;;;4.05;65.25;98215.52;251511;1134;114856;-70
2020/12/07 04:08:14;;;;;;;11.77;7.67;;;;;;;4.02;65.73;98212.09;251546;1134;114886;-70
2020/12/07 04:13:18;;;;;;;11.23;7.83;;;;;;;4.03;65.52;98219.05;251582;1136;114569;-70
2020/12/07 04:18:21;;;;;;;11.53;7.95;;;;;;;4.09;66.05;98214.44;251632;1135;114632;-70
2020/12/07 04:23:23;;;;;;;14.00;7.40;;;;;;;4.15;65.57;98211.50;251575;1135;114587;-71
2020/12/07 04:28:27;;;;;;;11.28;7.67;;;;;;;4.24;65.82;98222.41;251743;1134;114674;-71
2020/12/07 04:33:32;;;;;;;9.50;7.27;;;;;;;4.31;66.05;98232.64;251552;1135;115568;-72
2020/12/07 04:38:38;;;;;;;9.90;7.53;;;;;;;4.30;65.33;98238.84;251705;1134;114453;-72
2020/12/07 04:43:41;;;;;;;10.08;7.60;;;;;;;4.27;65.37;98231.95;251642;1140;114592;-71
2020/12/07 04:48:51;;;;;;;9.97;7.60;;;;;;;4.28;65.43;98231.04;251532;1135;114785;-73
2020/12/07 04:53:59;;;;;;;9.65;6.47;;;;;;;4.24;65.54;98235.58;251598;1135;114423;-72
2020/12/07 04:59:03;;;;;;;11.12;7.50;;;;;;;4.19;65.11;98219.16;251709;1134;114615;-74
2020/12/07 05:04:09;;;;;;;8.95;6.92;;;;;;;4.16;66.16;98224.58;251514;1134;114688;-74
2020/12/07 05:09:13;;;;;;;10.55;7.28;;;;;;;4.11;65.70;98209.92;251747;1135;114737;-71
2020/12/07 05:14:15;;;;;;;11.87;7.73;;;;;;;4.06;66.01;98211.95;251651;1134;114536;-71
2020/12/07 05:19:22;;;;;;;10.15;7.17;;;;;;;4.09;66.15;98214.44;251888;1134;115037;-71
2020/12/07 05:24:26;;;;;;;9.47;6.83;;;;;;;4.10;65.83;98210.86;251717;1134;115248;-69
2020/12/07 05:29:39;;;;;;;10.13;7.03;;;;;;;4.18;66.59;98206.09;251513;1134;114892;-70
2020/12/07 05:34:42;;;;;;;9.28;6.60;;;;;;;4.23;65.47;98214.59;251986;1134;115481;-78
2020/12/07 05:39:48;;;;;;;11.77;6.87;;;;;;;4.17;65.63;98210.48;251623;1134;114179;-74
2020/12/07 05:45:06;;;;;;;10.32;7.40;;;;;;;4.17;66.02;98205.20;251765;1134;114657;-74
2020/12/07 05:50:22;;;;;;;12.03;7.90;;;;;;;4.10;65.65;98200.33;251551;1133;114770;-78
2020/12/07 05:55:32;;;;;;;11.08;7.42;;;;;;;4.05;66.19;98191.83;251551;1134;114757;-75
2020/12/07 06:00:47;;;;;;;13.08;8.08;;;;;;;3.99;66.20;98200.86;251659;1134;115008;-77
2020/12/07 06:05:58;;;;;;;11.00;7.83;;;;;;;4.03;66.19;98211.16;251511;1134;114435;-88
2020/12/07 06:12:11;;;;;;;13.10;7.20;;;;;;;4.09;65.47;98210.02;250021;1138;114742;-77
2020/12/07 06:17:29;;;;;;;9.80;6.77;;;;;;;4.09;66.18;98217.06;251244;1135;114394;-82
2020/12/07 06:22:42;;;;;;;11.83;7.83;;;;;;;4.05;65.65;98215.52;251594;1135;115358;-76
2020/12/07 06:27:55;;;;;;;10.38;7.10;;;;;;;4.01;66.27;98234.09;251795;1134;114668;-75
2020/12/07 06:33:07;;;;;;;10.55;7.67;;;;;;;4.00;65.65;98219.20;251585;1134;115194;-75
2020/12/07 06:38:20;;;;;;;11.88;8.28;;;;;;;3.99;65.90;98240.34;251787;1134;115430;-76
2020/12/07 06:43:28;;;;;;;11.43;7.43;;;;;;;3.99;65.22;98249.09;251629;1134;114953;-74
2020/12/07 06:48:41;;;;;;;12.93;9.13;;;;;;;3.95;65.26;98242.28;251557;1134;114685;-76
2020/12/07 06:53:48;;;;;;;16.23;10.45;;;;;;;3.98;65.30;98241.28;251619;1134;114772;-74
2020/12/07 06:59:07;;;;;;;15.63;9.10;;;;;;;4.03;65.99;98247.16;251675;1135;114739;-74
2020/12/07 07:04:19;;;;;;;11.65;8.40;;;;;;;4.03;65.96;98249.80;251616;1135;116606;-74
2020/12/07 07:09:43;;;;;;;12.10;8.00;;;;;;;4.10;66.09;98259.10;251878;1134;115424;-74
2020/12/07 07:14:53;;;;;;;12.27;7.70;;;;;;;4.07;65.31;98251.34;251603;1134;114375;-68
2020/12/07 07:19:56;;;;;;;10.75;7.58;;;;;;;4.08;65.66;98265.39;251495;1134;114300;-71
2020/12/07 07:30:05;;;;;;;12.10;8.57;;;;;;;4.11;65.94;98258.20;251628;1134;114669;-76
2020/12/07 07:35:33;;;;;;;12.25;8.80;;;;;;;4.17;65.64;98263.14;251731;1134;116188;-76
2020/12/07 07:40:41;;;;;;;14.03;9.37;;;;;;;4.15;65.28;98274.70;251591;1135;115499;-71
2020/12/07 07:45:48;;;;;;;12.68;8.03;;;;;;;4.14;66.13;98286.98;251820;1139;114533;-67
2020/12/07 07:51:28;;;;;;;14.83;8.90;;;;;;;4.12;66.12;98295.91;251680;1135;114739;-71
2020/12/07 08:18:41;;;;;;;;;;;;;;;;;;;;;
2020/12/07 08:24:29;;;;;;;12.60;9.28;;;;;;;4.46;66.25;98327.58;251674;1134;114624;-71
2020/12/07 08:29:37;;;;;;;15.23;9.83;;;;;;;4.58;65.91;98333.17;249336;1133;114994;-73
2020/12/07 08:34:40;;;;;;;13.83;9.03;;;;;;;4.68;65.33;98331.78;251672;1134;114495;-73
2020/12/07 08:39:42;;;;;;;15.05;9.58;;;;;;;4.76;66.14;98331.43;251748;1133;115434;-73
2020/12/07 08:44:51;;;;;;;15.73;9.93;;;;;;;4.81;65.27;98327.61;251779;1134;115674;-73
2020/12/07 08:49:54;;;;;;;16.02;10.48;;;;;;;4.86;65.60;98322.98;251736;1134;114547;-78
2020/12/07 08:55:00;;;;;;;13.37;9.47;;;;;;;4.88;64.85;98317.61;251687;1135;114981;-78
2020/12/07 09:00:08;;;;;;;15.33;9.97;;;;;;;4.88;65.55;98318.46;251763;1134;114713;-77
2020/12/07 09:05:15;;;;;;;16.62;10.60;;;;;;;4.94;65.68;98312.03;251549;1134;114492;-77
2020/12/07 09:10:17;;;;;;;16.13;10.93;;;;;;;5.00;66.12;98305.61;251866;1133;114977;-77
2020/12/07 09:15:24;;;;;;;16.83;10.57;;;;;;;5.10;65.74;98312.11;251620;1134;114734;-77
2020/12/07 09:20:55;;;;;;;17.20;10.90;;;;;;;5.17;65.62;98295.04;251678;1134;115480;-81
2020/12/07 09:26:19;;;;;;;20.97;13.00;;;;;;;5.24;65.00;98301.70;251524;1135;114938;-72
2020/12/07 09:31:22;;;;;;;16.52;10.72;;;;;;;5.28;64.69;98302.39;251679;1135;115022;-73
2020/12/07 09:36:24;;;;;;;17.80;10.07;;;;;;;5.28;65.47;98300.59;251754;1134;115025;-84
2020/12/07 09:41:31;;;;;;;16.12;10.65;;;;;;;5.31;65.05;98297.80;251855;1134;114995;-76
2020/12/07 09:46:42;;;;;;;15.90;10.30;;;;;;;5.31;65.33;98295.16;251694;1135;115424;-73
2020/12/07 09:51:45;;;;;;;14.53;9.57;;;;;;;5.35;64.66;98303.77;251690;1134;114779;-83
2020/12/07 09:57:10;;;;;;;;;;;;;;;;;;;;;
2020/12/07 10:02:55;;;;;;;16.20;11.10;;;;;;;5.40;64.36;98288.53;251040;1135;115494;-82
2020/12/07 10:08:16;;;;;;;19.00;10.93;;;;;;;5.54;65.32;98285.19;250453;1135;115986;-78
2020/12/07 10:13:27;;;;;;;18.73;12.10;;;;;;;5.65;65.47;98291.58;250613;1135;114923;-76
2020/12/07 10:18:36;;;;;;;19.00;11.83;;;;;;;5.70;64.43;98286.87;251719;1134;115369;-78
2020/12/07 10:23:44;;;;;;;16.37;11.22;;;;;;;5.77;64.49;98294.47;251595;1134;114797;-77
2020/12/07 10:29:27;;;;;;;17.30;10.60;;;;;;;5.84;64.45;98290.56;251612;1135;114784;-79
2020/12/07 10:34:33;;;;;;;16.97;10.57;;;;;;;5.90;64.17;98288.44;251573;1133;115255;-76
2020/12/07 10:39:40;;;;;;;16.37;10.83;;;;;;;5.95;64.96;98284.74;251616;1133;114854;-77
2020/12/07 10:44:56;;;;;;;17.13;11.03;;;;;;;5.99;64.40;98294.19;251504;1133;114595;-77
2020/12/07 10:50:00;;;;;;;19.10;11.70;;;;;;;6.03;64.35;98293.08;251564;1134;114877;-77
2020/12/07 10:55:13;;;;;;;15.90;10.80;;;;;;;6.05;64.35;98292.06;251453;1134;115044;-74
2020/12/07 11:00:19;;;;;;;16.73;11.12;;;;;;;6.05;64.82;98286.78;251695;1135;114705;-75
2020/12/07 11:05:28;;;;;;;17.35;10.78;;;;;;;6.08;64.90;98283.09;251631;1134;114591;-74
2020/12/07 11:10:42;;;;;;;17.27;11.47;;;;;;;6.18;64.52;98286.92;251556;1133;114840;-76
2020/12/07 11:16:03;;;;;;;18.87;12.30;;;;;;;6.32;64.76;98294.95;251644;1134;114594;-77
2020/12/07 11:21:20;;;;;;;17.00;11.22;;;;;;;6.45;64.35;98291.59;251442;1134;115075;-74
2020/12/07 11:26:34;;;;;;;19.82;12.28;;;;;;;6.53;64.62;98289.38;251673;1134;114766;-74
2020/12/07 11:31:36;;;;;;;16.70;10.90;;;;;;;6.58;63.90;98272.28;251503;1135;114585;-69
2020/12/07 11:36:39;;;;;;;20.37;12.37;;;;;;;6.57;63.72;98275.03;251597;1133;114920;-77
2020/12/07 11:41:55;;;;;;;15.50;10.80;;;;;;;6.56;63.56;98265.41;251675;1142;114410;-69
2020/12/07 11:47:01;;;;;;;19.17;11.55;;;;;;;6.54;64.89;98275.20;251664;1134;114675;-70
2020/12/07 11:52:04;;;;;;;22.02;13.03;;;;;;;6.56;64.48;98281.27;251784;1135;114705;-71
2020/12/07 11:57:08;;;;;;;17.73;11.80;;;;;;;6.61;64.44;98271.27;251706;1135;114887;-71
2020/12/07 12:02:12;;;;;;;18.07;11.73;;;;;;;6.63;64.24;98270.24;251736;1135;114332;-70
2020/12/07 12:07:14;;;;;;;21.07;12.18;;;;;;;6.66;63.47;98274.51;251687;1134;114490;-66
2020/12/07 12:12:17;;;;;;;21.30;12.77;;;;;;;6.72;64.50;98275.92;251963;1135;115027;-65
2020/12/07 12:17:19;;;;;;;20.10;12.20;;;;;;;6.75;64.33;98273.94;251603;1135;115032;-67
2020/12/07 12:22:22;;;;;;;20.73;12.40;;;;;;;6.78;63.86;98276.41;251779;1135;114686;-65
2020/12/07 12:27:25;;;;;;;20.90;12.17;;;;;;;6.77;64.23;98268.59;251587;1135;115304;-65
2020/12/07 12:32:27;;;;;;;20.48;12.68;;;;;;;6.70;63.94;98270.73;251623;1135;115036;-65
2020/12/07 12:37:29;;;;;;;20.03;11.70;;;;;;;6.69;64.13;98265.52;251828;1135;114781;-65
2020/12/07 12:42:32;;;;;;;18.43;11.70;;;;;;;6.62;63.29;98278.24;251719;1136;114579;-65
2020/12/07 12:47:34;;;;;;;20.13;12.23;;;;;;;6.58;64.17;98268.80;251705;1136;114752;-65
2020/12/07 12:52:38;;;;;;;23.27;12.33;;;;;;;6.52;62.79;98277.95;251612;1135;114847;-65
2020/12/07 12:57:41;;;;;;;19.07;12.47;;;;;;;6.52;63.57;98287.64;251576;1135;115169;-65
2020/12/07 13:02:43;;;;;;;18.13;11.30;;;;;;;6.50;63.92;98285.11;251731;1134;114396;-64
2020/12/07 13:07:45;;;;;;;19.50;13.00;;;;;;;6.49;64.10;98280.77;251680;1134;114858;-64
2020/12/07 13:12:48;;;;;;;18.23;11.50;;;;;;;6.47;62.65;98281.80;251537;1135;114821;-64
2020/12/07 13:17:58;;;;;;;20.97;12.93;;;;;;;6.43;63.29;98293.48;251751;1135;114987;-64
2020/12/07 13:23:46;;;;;;;20.15;12.50;;;;;;;6.44;63.11;98300.46;251519;1135;115281;-66
2020/12/07 13:28:26;;;;;;;22.93;12.67;;;;;;;6.47;63.26;98321.44;251734;1133;115313;-65
2020/12/07 13:33:29;;;;;;;19.70;12.13;;;;;;;6.47;63.04;98317.00;251553;1133;116105;-64
2020/12/07 13:38:32;;;;;;;19.57;12.40;;;;;;;6.45;63.26;98318.86;251574;1135;114906;-64
2020/12/07 13:43:35;;;;;;;21.63;12.60;;;;;;;6.40;62.41;98331.50;251481;1135;114866;-65
2020/12/07 13:48:37;;;;;;;21.10;12.30;;;;;;;6.34;63.59;98330.05;251553;1134;114618;-62
2020/12/07 13:53:40;;;;;;;20.63;12.17;;;;;;;6.29;63.09;98321.54;251566;1135;115055;-63
2020/12/07 13:58:42;;;;;;;20.90;12.13;;;;;;;6.24;63.33;98325.37;251592;1135;114897;-62
2020/12/07 14:04:38;;;;;;;18.80;11.97;;;;;;;6.20;62.09;98322.05;251715;1134;115251;-62
2020/12/07 14:09:08;;;;;;;20.13;12.13;;;;;;;6.13;63.50;98332.10;251404;1135;114405;-63
2020/12/07 14:14:11;;;;;;;21.65;13.30;;;;;;;6.08;63.42;98334.16;251654;1136;114889;-63
2020/12/07 14:19:18;;;;;;;24.50;14.33;;;;;;;6.04;63.24;98323.83;251611;1135;114692;-66
2020/12/07 14:40:14;;;;;;;29.32;17.05;;;;;;;5.75;63.53;98331.53;250174;1134;115771;-69
2020/12/07 14:45:22;;;;;;;29.80;16.90;;;;;;;5.68;62.43;98343.36;250765;1135;115237;-65
2020/12/07 14:51:15;;;;;;;30.92;16.80;;;;;;;5.63;63.01;98351.50;251857;1135;114992;-65
2020/12/07 14:56:00;;;;;;;;;;;;;;;5.59;62.79;98355.23;251780;1135;114722;-65
2020/12/07 15:06:56;;;;;;;30.80;17.12;;;;;;;5.42;63.27;98352.64;251558;1134;114868;-66
2020/12/07 15:12:16;;;;;;;28.77;16.70;;;;;;;5.35;62.84;98348.62;251668;1135;114695;-66
2020/12/07 15:17:18;;;;;;;29.92;16.65;;;;;;;5.22;62.70;98340.48;251646;1135;114794;-66
2020/12/07 15:22:22;;;;;;;29.97;17.40;;;;;;;5.13;62.30;98338.30;251604;1134;115119;-67
2020/12/07 15:27:24;;;;;;;32.83;17.53;;;;;;;5.03;63.34;98339.70;251760;1135;114735;-66
2020/12/07 15:32:27;;;;;;;32.50;18.75;;;;;;;4.97;63.30;98330.34;251799;1133;114733;-66
2020/12/07 15:37:30;;;;;;;31.40;16.87;;;;;;;4.92;63.80;98338.46;251544;1135;114948;-66
2020/12/07 15:42:33;;;;;;;32.13;18.37;;;;;;;4.92;62.78;98330.55;251499;1135;114600;-66
2020/12/07 15:47:35;;;;;;;35.97;19.30;;;;;;;4.95;63.63;98346.22;251819;1135;114632;-65
2020/12/07 15:52:38;;;;;;;34.00;19.40;;;;;;;5.00;63.39;98353.92;251910;1134;114925;-66
2020/12/07 15:57:40;;;;;;;32.05;18.20;;;;;;;5.06;63.50;98353.61;251924;1134;115486;-66
2020/12/07 16:02:43;;;;;;;31.30;18.23;;;;;;;5.08;63.29;98343.82;251915;1135;115305;-66
2020/12/07 16:07:46;;;;;;;32.17;18.00;;;;;;;5.07;63.14;98355.31;251979;1135;114786;-67
2020/12/07 16:13:09;;;;;;;31.37;17.80;;;;;;;5.00;63.25;98356.55;252041;1136;114739;-74
2020/12/07 16:18:12;;;;;;;37.23;19.77;;;;;;;4.94;63.07;98354.22;251779;1135;114592;-66
2020/12/07 16:23:15;;;;;;;29.50;17.70;;;;;;;4.85;63.22;98355.52;252042;1141;114703;-66
2020/12/07 16:28:18;;;;;;;30.97;18.67;;;;;;;4.79;63.52;98347.06;251860;1134;115224;-66
2020/12/07 16:33:21;;;;;;;30.57;17.37;;;;;;;4.78;62.85;98348.00;251931;1137;114925;-66
2020/12/07 16:38:23;;;;;;;37.30;19.63;;;;;;;4.77;62.88;98341.03;251968;1134;114830;-66
2020/12/07 16:43:26;;;;;;;33.92;19.35;;;;;;;4.71;63.07;98357.99;251689;1135;114879;-66
2020/12/07 16:48:28;;;;;;;37.13;20.65;;;;;;;4.63;63.14;98353.11;251524;1135;114650;-65
2020/12/07 16:53:31;;;;;;;41.13;22.37;;;;;;;4.61;63.05;98346.20;251617;1134;114658;-66
2020/12/07 16:58:34;;;;;;;35.87;20.80;;;;;;;4.65;63.72;98358.29;251576;1137;115143;-66
2020/12/07 17:03:36;;;;;;;39.53;21.07;;;;;;;4.66;64.29;98360.86;251645;1133;114983;-69
2020/12/07 17:08:40;;;;;;;38.87;21.37;;;;;;;4.65;63.17;98359.17;251715;1135;114320;-67
2020/12/07 17:13:43;;;;;;;42.80;21.70;;;;;;;4.60;63.12;98365.58;251720;1133;115107;-67
2020/12/07 17:18:45;;;;;;;39.17;21.20;;;;;;;4.54;63.50;98366.72;251601;1134;114905;-67
2020/12/07 17:23:51;;;;;;;38.15;21.02;;;;;;;4.47;63.33;98355.63;251728;1134;115336;-68
2020/12/07 17:28:54;;;;;;;40.13;22.50;;;;;;;4.37;63.49;98356.14;251725;1135;116607;-68
2020/12/07 17:33:56;;;;;;;41.90;22.22;;;;;;;4.34;63.79;98361.55;251531;1135;115079;-69
2020/12/07 17:39:00;;;;;;;42.43;21.23;;;;;;;4.23;64.10;98355.02;251663;1134;114726;-69
2020/12/07 17:44:02;;;;;;;47.17;22.00;;;;;;;4.17;64.36;98372.89;251687;1135;115050;-68
2020/12/07 17:49:05;;;;;;;44.15;24.27;;;;;;;4.14;64.60;98378.30;251810;1133;114594;-69
2020/12/07 17:54:08;;;;;;;41.87;23.47;;;;;;;4.12;63.65;98374.89;251817;1134;114841;-69
2020/12/07 17:59:12;;;;;;;39.45;22.52;;;;;;;4.11;64.21;98378.43;251565;1134;114953;-70
2020/12/07 18:04:15;;;;;;;35.77;21.47;;;;;;;4.08;64.06;98386.50;251660;1111;115335;-77
2020/12/07 18:09:18;;;;;;;37.43;21.13;;;;;;;4.02;63.83;98370.05;251788;1133;115149;-76
2020/12/07 18:14:41;;;;;;;40.83;22.07;;;;;;;3.97;64.09;98371.17;251703;1141;114979;-77
2020/12/07 18:19:44;;;;;;;38.80;22.77;;;;;;;3.88;64.06;98385.63;251527;1134;115174;-75
2020/12/07 18:24:46;;;;;;;41.13;22.48;;;;;;;3.83;64.42;98390.23;251657;1135;114925;-75
2020/12/07 18:29:49;;;;;;;41.15;23.80;;;;;;;3.80;64.52;98390.36;251330;1134;115507;-77
2020/12/07 18:34:51;;;;;;;44.53;24.20;;;;;;;3.77;64.41;98390.50;251537;1133;114795;-75
2020/12/07 18:39:53;;;;;;;42.35;23.00;;;;;;;3.74;64.75;98393.30;251605;1134;115010;-78
2020/12/07 18:44:56;;;;;;;40.33;23.00;;;;;;;3.71;65.22;98402.17;249423;1134;114969;-78
2020/12/07 18:50:01;;;;;;;41.90;23.30;;;;;;;3.70;64.70;98396.96;251516;1133;114840;-78
2020/12/07 18:55:05;;;;;;;41.45;22.73;;;;;;;3.74;65.11;98406.45;251955;1133;114705;-79
2020/12/07 19:00:11;;;;;;;40.53;22.93;;;;;;;3.74;64.83;98406.45;251554;1134;114854;-77
2020/12/07 19:05:14;;;;;;;44.48;24.15;;;;;;;3.74;65.20;98407.30;251627;1133;115061;-77
2020/12/07 19:10:19;;;;;;;37.53;21.67;;;;;;;3.72;65.28;98411.77;251574;1136;114704;-76
2020/12/07 19:15:22;;;;;;;37.63;22.53;;;;;;;3.68;65.38;98419.88;251625;1134;114853;-78
2020/12/07 19:20:25;;;;;;;39.27;22.30;;;;;;;3.64;65.11;98413.89;248907;1135;114819;-77
2020/12/07 19:25:27;;;;;;;41.33;23.33;;;;;;;3.59;65.45;98404.48;251529;1142;114927;-75
2020/12/07 19:30:30;;;;;;;40.60;22.25;;;;;;;3.51;65.47;98408.31;251656;1135;116398;-77
2020/12/07 19:35:32;;;;;;;40.10;23.13;;;;;;;3.45;65.27;98416.46;251421;1134;114699;-75
2020/12/07 19:40:35;;;;;;;46.10;24.40;;;;;;;3.44;65.05;98409.50;251478;1135;114612;-74
2020/12/07 19:45:37;;;;;;;38.92;21.75;;;;;;;3.44;65.61;98404.23;251491;1134;114848;-74
2020/12/07 19:50:40;;;;;;;37.40;22.90;;;;;;;3.42;65.38;98413.11;251510;1135;114395;-76
2020/12/07 19:55:42;;;;;;;43.43;24.47;;;;;;;3.38;65.77;98411.55;251754;1135;114748;-74
2020/12/07 20:00:45;;;;;;;45.70;22.93;;;;;;;3.35;65.51;98404.62;251673;1134;114717;-77
2020/12/07 20:05:49;;;;;;;43.50;22.70;;;;;;;3.37;65.77;98417.73;251591;1135;114535;-76
2020/12/07 20:10:52;;;;;;;40.28;22.77;;;;;;;3.35;65.56;98411.67;251791;1134;114373;-74
2020/12/07 20:15:57;;;;;;;39.90;22.93;;;;;;;3.29;65.58;98415.41;251679;1133;115187;-76
2020/12/07 20:21:00;;;;;;;;;;;;;;;3.26;65.81;98428.67;251684;1135;114806;-76
2020/12/07 20:26:03;;;;;;;39.10;21.93;;;;;;;3.22;65.52;98427.95;251151;1134;104359;-75
2020/12/07 20:31:06;;;;;;;39.48;23.25;;;;;;;3.20;65.89;98427.19;251605;1134;115121;-78
2020/12/07 20:36:13;;;;;;;42.37;23.33;;;;;;;3.22;66.15;98430.58;251582;1135;115321;-76
2020/12/07 20:41:19;;;;;;;43.27;23.37;;;;;;;3.29;66.20;98431.18;251555;1134;114737;-75
2020/12/07 20:46:21;;;;;;;40.90;23.83;;;;;;;3.31;66.09;98443.35;250082;1134;114924;-75
2020/12/07 20:51:23;;;;;;;40.53;23.30;;;;;;;3.33;65.59;98438.05;251545;1134;115147;-76
2020/12/07 20:56:26;;;;;;;45.00;23.77;;;;;;;3.34;66.45;98436.27;251570;1134;114774;-74
2020/12/07 21:01:29;;;;;;;38.35;21.95;;;;;;;3.34;65.62;98446.78;251409;1135;114740;-74
2020/12/07 21:06:31;;;;;;;44.73;24.20;;;;;;;3.34;66.31;98439.75;251463;1134;115778;-75
2020/12/07 21:11:36;;;;;;;42.27;23.52;;;;;;;3.31;65.94;98439.88;251562;1135;114684;-76
2020/12/07 21:16:38;;;;;;;40.87;24.30;;;;;;;3.25;66.10;98434.86;251405;1135;114612;-76
2020/12/07 21:21:43;;;;;;;48.27;24.47;;;;;;;3.23;65.90;98436.72;251289;1134;114802;-74
2020/12/07 21:26:46;;;;;;;44.53;24.95;;;;;;;3.20;65.67;98448.22;251515;1135;115116;-74
2020/12/07 21:31:53;;;;;;;46.70;24.40;;;;;;;3.23;66.25;98458.61;251410;1135;115009;-74
2020/12/07 21:36:56;;;;;;;43.20;24.63;;;;;;;3.29;65.87;98457.48;251438;1135;115026;-76
2020/12/07 21:42:01;;;;;;;44.53;23.67;;;;;;;3.35;66.17;98446.70;251516;1134;115081;-76
2020/12/07 21:47:05;;;;;;;40.58;24.05;;;;;;;3.38;65.83;98448.36;251420;1135;114962;-76
2020/12/07 21:52:10;;;;;;;40.88;23.15;;;;;;;3.37;66.15;98447.51;251322;1134;114696;-76
2020/12/07 21:57:14;;;;;;;40.67;21.93;;;;;;;3.35;66.31;98453.74;251351;1135;114914;-75
2020/12/07 22:02:17;;;;;;;42.50;23.83;;;;;;;3.28;65.95;98448.73;251300;1135;114478;-75
2020/12/07 22:07:21;;;;;;;45.03;23.60;;;;;;;3.27;65.86;98444.41;251352;1135;115744;-74
2020/12/07 22:12:23;;;;;;;43.77;22.50;;;;;;;3.27;65.78;98454.08;251358;1135;114749;-76
2020/12/07 22:17:26;;;;;;;48.50;25.97;;;;;;;3.25;65.98;98450.64;251553;1134;115248;-74
2020/12/07 22:22:28;;;;;;;45.13;24.40;;;;;;;3.21;65.83;98459.58;251339;1134;114709;-75
2020/12/07 22:27:31;;;;;;;41.23;23.93;;;;;;;3.26;66.01;98454.97;251424;1135;114958;-74
2020/12/07 22:32:34;;;;;;;45.13;23.87;;;;;;;3.29;66.26;98457.48;251308;1133;115275;-75
2020/12/07 22:37:36;;;;;;;45.13;23.93;;;;;;;3.28;66.39;98456.63;251380;1135;114815;-77
2020/12/07 22:42:39;;;;;;;44.95;23.27;;;;;;;3.32;65.99;98462.61;251584;1134;114815;-74
2020/12/07 22:47:41;;;;;;;39.63;20.97;;;;;;;3.34;66.07;98458.16;251415;1135;114774;-74
2020/12/07 22:52:44;;;;;;;39.87;23.27;;;;;;;3.29;66.34;98447.84;251649;1135;114586;-75
2020/12/07 22:57:46;;;;;;;40.33;22.77;;;;;;;3.28;65.96;98450.52;251425;1135;114783;-74
2020/12/07 23:02:49;;;;;;;41.43;23.57;;;;;;;3.26;65.65;98453.22;251429;1134;114677;-75
2020/12/07 23:07:51;;;;;;;43.30;23.30;;;;;;;3.23;66.27;98444.61;251432;1135;114861;-74
2020/12/07 23:12:54;;;;;;;40.50;22.67;;;;;;;3.20;66.05;98456.10;251537;1135;114633;-75
2020/12/07 23:17:56;;;;;;;42.77;23.27;;;;;;;3.18;65.86;98463.19;251425;1135;114712;-74
2020/12/07 23:22:59;;;;;;;45.00;23.35;;;;;;;3.22;66.22;98461.28;251477;1135;114751;-75
2020/12/07 23:28:03;;;;;;;42.48;22.73;;;;;;;3.26;65.81;98457.60;251226;1134;115268;-76
2020/12/07 23:33:05;;;;;;;38.07;22.23;;;;;;;3.26;66.40;98453.22;250658;1134;114915;-75
2020/12/07 23:38:15;;;;;;;41.25;22.95;;;;;;;3.21;65.23;98459.58;251614;1135;114801;-76
2020/12/07 23:43:17;;;;;;;37.00;20.30;;;;;;;3.20;65.92;98457.88;251480;1134;114788;-76
2020/12/07 23:48:20;;;;;;;40.23;21.00;;;;;;;3.16;66.31;98457.16;251396;1136;114622;-76
2020/12/07 23:53:22;;;;;;;41.18;22.05;;;;;;;3.11;65.66;98461.73;251230;1134;114334;-74
2020/12/07 23:58:24;;;;;;;36.23;20.15;;;;;;;3.09;65.85;98466.19;251418;1136;114932;-74
